Time;durP1;ratioP1;P1;durP2;ratioP2;P2;SDS_P1;SDS_P2;PMS_P1;PMS_P2;Temp;Humidity;BMP_temperature;BMP_pressure;BME280_temperature;BME280_humidity;BME280_pressure;Samples;Min_cycle;Max_cycle;Signal;HPM_P1;HPM_P2
2023/04/20 00:02:37;;;;;;;7.18;3.97;;;;;;;6.49;100.00;101124.69;6118169;28;20053;-89
2023/04/20 00:05:39;;;;;;;6.95;4.00;;;;;;;6.41;100.00;101117.34;6120201;28;20474;-89
2023/04/20 00:08:42;;;;;;;8.52;4.20;;;;;;;6.40;100.00;101121.69;6134171;28;20055;-89
2023/04/20 00:11:44;;;;;;;9.30;4.30;;;;;;;6.47;100.00;101117.06;6139321;28;20043;-89
2023/04/20 00:14:46;;;;;;;7.22;4.18;;;;;;;6.42;100.00;101116.47;6116905;28;20047;-89
2023/04/20 00:17:48;;;;;;;7.78;4.18;;;;;;;6.45;100.00;101118.88;6109233;29;20325;-89
2023/04/20 00:20:50;;;;;;;5.68;3.70;;;;;;;6.34;100.00;101110.91;6125406;28;20035;-89
2023/04/20 00:23:52;;;;;;;5.43;3.25;;;;;;;6.37;100.00;101106.41;6129704;28;20043;-89
2023/04/20 00:26:54;;;;;;;7.75;3.55;;;;;;;6.29;100.00;101102.59;6126850;28;20168;-89
2023/04/20 00:29:55;;;;;;;7.03;3.50;;;;;;;6.28;100.00;101106.06;6110691;28;20054;-89
2023/04/20 00:32:57;;;;;;;7.53;3.95;;;;;;;6.22;100.00;101094.34;6109798;28;20075;-89
2023/04/20 00:35:59;;;;;;;6.40;3.38;;;;;;;6.26;100.00;101095.88;6088507;28;20048;-89
2023/04/20 00:39:02;;;;;;;8.65;3.53;;;;;;;6.18;100.00;101090.28;6133768;28;20043;-89
2023/04/20 00:42:05;;;;;;;5.88;3.38;;;;;;;6.17;100.00;101091.19;6111065;28;20227;-90
2023/04/20 00:45:08;;;;;;;7.45;3.70;;;;;;;6.25;100.00;101096.75;6105935;28;20054;-89
2023/04/20 00:48:11;;;;;;;6.22;3.65;;;;;;;6.25;100.00;101096.75;6105700;28;20047;-88
2023/04/20 00:51:13;;;;;;;5.05;3.42;;;;;;;6.20;100.00;101093.59;6122699;28;20371;-90
2023/04/20 00:54:15;;;;;;;6.15;3.50;;;;;;;6.31;100.00;101083.59;6109126;28;20035;-90
2023/04/20 00:57:22;;;;;;;6.50;3.78;;;;;;;6.21;100.00;101087.53;6108471;28;20058;-90
2023/04/20 01:00:25;;;;;;;4.63;3.67;;;;;;;6.22;100.00;101084.91;6104382;28;20051;-90
2023/04/20 01:03:27;;;;;;;4.38;3.45;;;;;;;6.30;100.00;101083.69;6121961;28;20048;-89
2023/04/20 01:06:29;;;;;;;8.88;3.83;;;;;;;6.29;100.00;101075.13;6101300;28;20444;-90
2023/04/20 01:09:31;;;;;;;5.68;3.83;;;;;;;6.31;100.00;101068.19;6108448;28;20044;-90
2023/04/20 01:12:33;;;;;;;6.78;3.50;;;;;;;6.37;100.00;101067.03;6101164;29;20634;-90
2023/04/20 01:15:35;;;;;;;7.63;3.75;;;;;;;6.26;100.00;101065.03;6127379;28;20796;-90
2023/04/20 01:18:48;;;;;;;9.38;3.55;;;;;;;6.25;100.00;101059.03;6119601;28;20495;-90
2023/04/20 01:21:50;;;;;;;5.93;3.47;;;;;;;6.27;100.00;101060.72;6088717;28;20055;-90
2023/04/20 01:24:52;;;;;;;5.65;3.47;;;;;;;6.29;100.00;101056.31;6100357;28;20508;-89
2023/04/20 01:27:54;;;;;;;6.35;3.92;;;;;;;6.24;100.00;101052.25;6100517;28;20236;-90
2023/04/20 01:30:56;;;;;;;6.93;3.65;;;;;;;6.31;100.00;101054.47;6103434;28;20047;-90
2023/04/20 01:33:58;;;;;;;4.93;3.42;;;;;;;6.28;100.00;101042.59;6102868;28;20105;-90
2023/04/20 01:37:00;;;;;;;5.70;3.53;;;;;;;6.29;100.00;101040.91;6100123;28;20164;-90
2023/04/20 01:40:03;;;;;;;7.43;3.70;;;;;;;6.27;100.00;101040.13;6126601;28;20055;-90
2023/04/20 01:43:07;;;;;;;5.60;3.70;;;;;;;6.24;100.00;101031.66;6097873;28;20043;-90
2023/04/20 01:46:09;;;;;;;6.38;3.58;;;;;;;6.33;100.00;101024.38;6106574;28;20055;-90
2023/04/20 01:49:10;;;;;;;6.03;3.55;;;;;;;6.33;100.00;101022.63;6126373;28;20047;-90
2023/04/20 01:52:12;;;;;;;6.63;3.90;;;;;;;6.29;100.00;101021.16;6120876;28;20339;-90
2023/04/20 01:55:15;;;;;;;5.57;4.10;;;;;;;6.31;100.00;101016.75;6127232;28;20688;-90
2023/04/20 01:58:18;;;;;;;7.47;3.92;;;;;;;6.28;100.00;101010.94;6109408;29;20063;-89
2023/04/20 02:01:20;;;;;;;7.05;3.67;;;;;;;6.36;100.00;101007.06;6117639;29;20059;-90
2023/04/20 02:04:23;;;;;;;6.25;3.95;;;;;;;6.36;100.00;101008.78;6126463;28;20121;-89
2023/04/20 02:07:25;;;;;;;7.15;3.70;;;;;;;6.35;100.00;101009.72;6105191;28;20052;-90
2023/04/20 02:10:27;;;;;;;6.07;3.83;;;;;;;6.34;100.00;101008.06;6115064;28;20048;-89
2023/04/20 02:13:29;;;;;;;6.38;4.07;;;;;;;6.29;100.00;101021.16;6123090;28;20134;-89
2023/04/20 02:16:30;;;;;;;8.13;3.65;;;;;;;6.30;100.00;101016.84;6107980;28;20048;-89
2023/04/20 02:19:32;;;;;;;7.80;3.75;;;;;;;6.31;100.00;101010.78;6102282;28;20336;-90
2023/04/20 02:22:35;;;;;;;6.35;3.65;;;;;;;6.25;100.00;100999.06;6103852;28;20051;-89
2023/04/20 02:25:37;;;;;;;4.75;3.70;;;;;;;6.25;100.00;101006.78;6118492;28;20046;-89
2023/04/20 02:28:39;;;;;;;7.45;3.88;;;;;;;6.31;100.00;101005.63;6120456;28;20048;-89
2023/04/20 02:31:41;;;;;;;6.70;4.00;;;;;;;6.34;100.00;101002.91;6100738;28;20142;-89
2023/04/20 02:34:43;;;;;;;5.95;3.35;;;;;;;6.26;100.00;100995.63;6124503;28;20614;-89
2023/04/20 02:37:45;;;;;;;7.60;4.28;;;;;;;6.21;100.00;100995.84;6124058;28;20039;-89
2023/04/20 02:40:46;;;;;;;7.13;4.00;;;;;;;6.29;100.00;100997.19;6111596;28;20054;-89
2023/04/20 02:43:49;;;;;;;8.35;3.80;;;;;;;6.30;100.00;100991.13;6100124;28;20508;-89
2023/04/20 02:46:51;;;;;;;6.05;3.90;;;;;;;6.21;100.00;100990.72;6123175;28;20051;-89
2023/04/20 02:49:53;;;;;;;7.07;3.75;;;;;;;6.29;100.00;100997.19;6108577;29;20103;-89
2023/04/20 02:52:55;;;;;;;7.65;3.95;;;;;;;6.25;100.00;100992.19;6115170;28;20047;-89
2023/04/20 02:55:57;;;;;;;6.18;3.63;;;;;;;6.28;100.00;100995.50;6110180;28;20070;-89
2023/04/20 02:59:11;;;;;;;7.43;3.92;;;;;;;6.29;100.00;100989.47;6105649;28;20059;-89
2023/04/20 03:02:39;;;;;;;8.18;4.47;;;;;;;6.18;100.00;100982.31;6110262;28;20099;-89
2023/04/20 03:05:41;;;;;;;8.68;4.38;;;;;;;6.20;100.00;100986.47;6115144;28;20092;-89
2023/04/20 03:08:43;;;;;;;6.72;4.07;;;;;;;6.28;100.00;100988.63;6120780;28;20051;-89
2023/04/20 03:12:07;;;;;;;6.45;3.83;;;;;;;6.26;100.00;100985.34;6041840;29;20049;-89
2023/04/20 03:15:29;;;;;;;7.95;4.32;;;;;;;6.32;100.00;100982.41;6037916;29;20521;-89
2023/04/20 03:18:39;;;;;;;8.85;4.53;;;;;;;6.22;100.00;100984.66;6036888;29;20358;-89
2023/04/20 03:21:40;;;;;;;11.23;4.13;;;;;;;6.22;100.00;100987.22;6026371;29;20057;-89
2023/04/20 03:24:42;;;;;;;8.75;4.55;;;;;;;6.20;100.00;100983.91;6019301;29;20443;-89
2023/04/20 03:28:04;;;;;;;8.00;5.10;;;;;;;6.19;100.00;100979.69;6029117;29;20075;-89
2023/04/20 03:31:06;;;;;;;7.85;4.93;;;;;;;6.19;100.00;100987.38;6026055;29;20056;-89
2023/04/20 03:34:08;;;;;;;8.88;5.13;;;;;;;6.16;100.00;100984.13;6025541;29;20049;-89
2023/04/20 03:37:10;;;;;;;11.65;4.57;;;;;;;6.22;100.00;100988.97;6032154;29;20129;-89
2023/04/20 03:40:12;;;;;;;6.80;4.70;;;;;;;6.25;100.00;100989.63;6040411;29;20049;-89
2023/04/20 03:43:13;;;;;;;7.20;4.57;;;;;;;6.29;100.00;100994.63;6026361;29;20411;-89
2023/04/20 03:46:16;;;;;;;7.75;4.47;;;;;;;6.26;100.00;100993.03;6034036;29;20143;-89
2023/04/20 03:49:22;;;;;;;10.32;4.80;;;;;;;6.20;100.00;100981.31;6077529;28;20142;-89
2023/04/20 03:52:24;;;;;;;8.95;4.97;;;;;;;6.22;100.00;100982.06;6133419;28;20483;-89
2023/04/20 03:55:26;;;;;;;9.43;4.90;;;;;;;6.19;100.00;100989.13;6112703;28;20120;-89
2023/04/20 03:58:33;;;;;;;8.70;5.18;;;;;;;6.16;100.00;100990.13;6103424;28;20058;-89
2023/04/20 04:01:48;;;;;;;7.20;4.45;;;;;;;6.15;100.00;100992.78;6117628;28;20047;-89
2023/04/20 04:04:51;;;;;;;8.68;4.88;;;;;;;6.13;100.00;100987.69;6107251;28;20523;-89
2023/04/20 04:07:56;;;;;;;10.70;5.00;;;;;;;6.13;100.00;100992.00;6123266;28;20058;-89
2023/04/20 04:10:59;;;;;;;8.93;4.75;;;;;;;6.24;100.00;100992.28;6103710;29;20043;-89
2023/04/20 04:14:03;;;;;;;9.52;5.00;;;;;;;6.14;100.00;100997.09;6120914;28;20510;-89
2023/04/20 04:17:06;;;;;;;10.30;5.20;;;;;;;6.17;100.00;100985.81;6117969;28;20058;-89
2023/04/20 04:20:12;;;;;;;10.15;4.95;;;;;;;6.18;100.00;100992.59;6104872;28;20044;-89
2023/04/20 04:23:15;;;;;;;11.18;4.65;;;;;;;6.15;100.00;100988.44;6105738;28;20043;-89
2023/04/20 04:26:23;;;;;;;9.65;5.00;;;;;;;6.19;100.00;100989.97;6106469;28;20438;-89
2023/04/20 04:29:26;;;;;;;11.70;5.53;;;;;;;6.21;100.00;101001.00;6101322;28;20454;-89
2023/04/20 04:32:33;;;;;;;11.73;5.78;;;;;;;6.20;100.00;100995.94;6106356;28;20139;-89
2023/04/20 04:35:36;;;;;;;8.07;5.20;;;;;;;6.24;100.00;100993.13;6105551;28;20047;-89
2023/04/20 04:38:39;;;;;;;10.63;5.22;;;;;;;6.20;100.00;100989.03;6109320;28;20046;-89
2023/04/20 04:41:42;;;;;;;9.30;5.60;;;;;;;6.24;100.00;100993.13;6107294;28;20350;-89
2023/04/20 04:44:55;;;;;;;11.75;6.13;;;;;;;6.24;100.00;100995.69;6095746;28;20186;-89
2023/04/20 04:48:08;;;;;;;9.75;5.80;;;;;;;6.28;100.00;100991.19;6109050;28;20083;-89
2023/04/20 04:51:10;;;;;;;12.00;5.82;;;;;;;6.28;100.00;100993.75;6112515;28;20439;-89
2023/04/20 04:54:12;;;;;;;11.55;5.97;;;;;;;6.29;100.00;100985.16;6135464;28;20035;-89
2023/04/20 04:57:14;;;;;;;12.23;7.35;;;;;;;6.28;100.00;100983.47;6111298;28;20066;-89
2023/04/20 05:00:17;;;;;;;11.88;6.75;;;;;;;6.29;100.00;100989.47;6134455;28;20035;-89
2023/04/20 05:03:18;;;;;;;13.30;7.07;;;;;;;6.35;100.00;100995.09;6107741;28;20051;-89
2023/04/20 05:06:20;;;;;;;13.55;6.10;;;;;;;6.40;100.00;100992.28;6119891;28;20051;-89
2023/04/20 05:09:22;;;;;;;11.13;6.22;;;;;;;6.45;100.00;100998.00;6143336;28;20050;-89
2023/04/20 05:12:24;;;;;;;10.82;5.68;;;;;;;6.43;100.00;100997.25;6089547;28;20056;-89
2023/04/20 05:15:26;;;;;;;11.27;6.10;;;;;;;6.45;100.00;100998.00;6128526;28;20043;-88
2023/04/20 05:18:28;;;;;;;11.32;6.00;;;;;;;6.46;100.00;101007.41;6118475;28;20043;-89
2023/04/20 05:21:31;;;;;;;13.15;5.78;;;;;;;6.43;100.00;101003.25;6126173;28;20047;-89
2023/04/20 05:24:33;;;;;;;14.05;6.25;;;;;;;6.46;100.00;101007.41;6102040;28;20039;-89
2023/04/20 05:27:36;;;;;;;10.32;6.25;;;;;;;6.51;100.00;101014.84;6126160;28;20038;-89
2023/04/20 05:30:37;;;;;;;9.25;6.10;;;;;;;6.54;100.00;101006.97;6105464;28;20051;-89
2023/04/20 05:33:40;;;;;;;13.38;6.20;;;;;;;6.56;100.00;101020.56;6102419;28;20066;-89
2023/04/20 05:36:42;;;;;;;8.85;5.78;;;;;;;6.52;100.00;101011.38;6119257;28;20088;-89
2023/04/20 05:39:43;;;;;;;10.15;5.85;;;;;;;6.56;100.00;101016.28;6135854;28;20534;-89
2023/04/20 05:42:45;;;;;;;12.13;6.15;;;;;;;6.53;100.00;101023.31;6135121;28;20035;-88
2023/04/20 05:45:48;;;;;;;10.40;6.53;;;;;;;6.56;100.00;101018.00;6131333;28;20146;-89
2023/04/20 05:48:50;;;;;;;11.20;6.00;;;;;;;6.47;100.00;101021.91;6121150;28;20411;-89
2023/04/20 05:51:51;;;;;;;9.88;6.53;;;;;;;6.52;100.00;101022.47;6116270;28;20044;-88
2023/04/20 05:54:53;;;;;;;10.38;7.05;;;;;;;6.54;100.00;101023.22;6117567;28;20440;-89
2023/04/20 05:57:58;;;;;;;12.27;6.38;;;;;;;6.53;100.00;101028.44;6128925;28;20093;-89
2023/04/20 06:01:02;;;;;;;12.93;5.93;;;;;;;6.65;100.00;101027.78;6116596;28;20050;-89
2023/04/20 06:04:04;;;;;;;11.43;5.95;;;;;;;6.84;100.00;101027.63;6125954;28;20050;-88
2023/04/20 06:07:07;;;;;;;9.02;6.18;;;;;;;6.88;100.00;101023.94;6120951;28;20159;-89
2023/04/20 06:10:09;;;;;;;10.88;7.55;;;;;;;6.84;100.00;101020.72;6115275;28;20048;-89
2023/04/20 06:13:10;;;;;;;13.30;7.20;;;;;;;6.72;100.00;101021.41;6130792;28;20435;-89
2023/04/20 06:16:12;;;;;;;10.68;6.65;;;;;;;6.78;100.00;101017.66;6113113;28;20084;-89
2023/04/20 06:19:14;;;;;;;10.35;6.22;;;;;;;6.77;100.00;101026.28;6116140;28;20578;-89
2023/04/20 06:22:17;;;;;;;10.20;6.90;;;;;;;6.69;100.00;101019.81;6119797;28;20530;-89
2023/04/20 06:25:19;;;;;;;13.85;7.00;;;;;;;6.70;100.00;101020.66;6118688;28;20048;-89
2023/04/20 06:28:21;;;;;;;9.85;6.60;;;;;;;6.72;100.00;101021.41;6119442;28;20158;-89
2023/04/20 06:31:23;;;;;;;11.02;6.47;;;;;;;6.78;100.00;101015.06;6123720;28;20043;-89
2023/04/20 06:34:25;;;;;;;13.85;6.82;;;;;;;6.93;100.00;101016.78;6119496;28;20044;-89
2023/04/20 06:37:27;;;;;;;9.35;5.68;;;;;;;7.09;100.00;101022.75;6115878;28;20506;-89
2023/04/20 06:40:28;;;;;;;9.57;5.80;;;;;;;7.08;100.00;101022.81;6115816;28;20485;-89
2023/04/20 06:43:30;;;;;;;8.55;5.80;;;;;;;7.12;100.00;101026.91;6116651;28;20039;-89
2023/04/20 06:46:32;;;;;;;12.35;5.60;;;;;;;7.10;100.00;101024.44;6118205;28;20047;-88
2023/04/20 06:49:36;;;;;;;9.75;5.88;;;;;;;7.18;100.00;101020.56;6123448;28;20048;-88
2023/04/20 06:52:39;;;;;;;8.80;6.05;;;;;;;7.42;100.00;101026.88;6124839;28;20043;-88
2023/04/20 06:55:41;;;;;;;11.27;6.28;;;;;;;7.46;100.00;101023.22;6134699;28;20047;-89
2023/04/20 06:58:43;;;;;;;10.00;6.63;;;;;;;7.40;100.00;101031.28;6135880;28;20122;-89
2023/04/20 07:01:45;;;;;;;12.40;6.70;;;;;;;7.37;100.00;101025.50;6120023;28;20043;-88
2023/04/20 07:04:47;;;;;;;7.90;5.60;;;;;;;7.49;100.00;101027.38;6124837;28;20040;-89
2023/04/20 07:07:50;;;;;;;10.02;7.00;;;;;;;7.74;100.00;101030.16;6115345;28;20387;-88
2023/04/20 07:10:51;;;;;;;8.93;5.30;;;;;;;7.84;100.00;101033.03;6120875;28;20403;-89
2023/04/20 07:13:53;;;;;;;7.47;5.13;;;;;;;7.65;100.00;101028.16;6125732;28;20046;-88
2023/04/20 07:16:55;;;;;;;7.65;5.15;;;;;;;7.46;100.00;101036.13;6123371;28;20063;-89
2023/04/20 07:20:04;;;;;;;9.80;6.20;;;;;;;7.42;100.00;101038.94;6128031;28;20043;-89
2023/04/20 07:23:06;;;;;;;10.68;6.35;;;;;;;7.80;100.00;101048.75;6124182;28;20482;-89
2023/04/20 07:26:08;;;;;;;10.15;6.47;;;;;;;8.00;100.00;101040.69;6099296;28;20553;-89
2023/04/20 07:29:10;;;;;;;8.15;6.28;;;;;;;8.09;100.00;101040.13;6123665;28;20438;-89
2023/04/20 07:32:13;;;;;;;9.43;6.10;;;;;;;8.24;100.00;101028.06;6121601;28;20410;-89
2023/04/20 07:35:15;;;;;;;9.13;6.35;;;;;;;8.29;100.00;101031.19;6103131;28;20047;-89
2023/04/20 07:38:17;;;;;;;9.68;6.57;;;;;;;8.31;100.00;101041.41;6105344;28;20056;-89
2023/04/20 07:41:21;;;;;;;10.75;7.20;;;;;;;8.46;100.00;101037.91;6129473;28;20043;-89
2023/04/20 07:44:23;;;;;;;13.32;6.60;;;;;;;8.70;100.00;101034.75;6122781;28;20050;-89
2023/04/20 07:47:25;;;;;;;9.93;6.78;;;;;;;9.12;100.00;101041.50;6119707;28;20517;-89
2023/04/20 07:50:27;;;;;;;9.85;6.88;;;;;;;9.31;100.00;101041.13;6124375;28;20050;-89
2023/04/20 07:53:29;;;;;;;10.88;7.30;;;;;;;9.43;100.00;101034.31;6122588;28;20046;-88
2023/04/20 07:56:31;;;;;;;10.05;6.40;;;;;;;9.52;100.00;101038.06;6124030;28;20048;-90
2023/04/20 07:59:33;;;;;;;10.88;6.88;;;;;;;9.32;100.00;101041.97;6124368;28;20112;-88
2023/04/20 08:02:35;;;;;;;11.15;6.78;;;;;;;9.43;100.00;101040.31;6121050;28;20086;-88
2023/04/20 08:05:38;;;;;;;11.80;6.40;;;;;;;9.54;100.00;101054.28;6123493;28;20040;-88
2023/04/20 08:08:40;;;;;;;9.00;7.32;;;;;;;9.21;100.00;101051.22;6120151;28;20683;-88
2023/04/20 08:11:45;;;;;;;8.48;6.18;;;;;;;9.14;100.00;101047.41;6122425;28;20141;-88
2023/04/20 08:14:47;;;;;;;8.52;6.32;;;;;;;9.15;100.00;101051.63;6102550;28;20070;-88
2023/04/20 08:17:49;;;;;;;7.93;6.00;;;;;;;9.32;100.00;101041.97;6122586;28;20401;-88
2023/04/20 08:20:52;;;;;;;8.48;5.95;;;;;;;9.46;100.00;101047.84;6128048;28;20559;-88
2023/04/20 08:23:54;;;;;;;8.52;5.82;;;;;;;9.54;100.00;101047.38;6102211;29;20051;-88
2023/04/20 08:26:57;;;;;;;10.07;6.30;;;;;;;9.55;100.00;101046.44;6120053;28;20043;-88
2023/04/20 08:30:00;;;;;;;12.73;7.03;;;;;;;9.61;100.00;101056.34;6115924;28;20051;-88
2023/04/20 08:33:02;;;;;;;8.32;5.80;;;;;;;9.70;100.00;101057.50;6102157;28;20509;-88
2023/04/20 08:36:06;;;;;;;9.88;5.80;;;;;;;10.03;100.00;101046.66;6113481;28;20083;-88
2023/04/20 08:39:14;;;;;;;11.82;6.57;;;;;;;10.59;100.00;101054.03;6132091;28;20566;-87
2023/04/20 08:42:18;;;;;;;10.27;6.07;;;;;;;10.92;100.00;101047.38;6120609;28;20044;-87
2023/04/20 08:45:20;;;;;;;7.40;5.47;;;;;;;11.03;100.00;101051.78;6119888;28;20534;-87
2023/04/20 08:48:25;;;;;;;20.33;8.93;;;;;;;11.16;100.00;101049.97;6101891;28;20056;-87
2023/04/20 08:51:28;;;;;;;7.55;5.75;;;;;;;11.02;100.00;101043.19;6100402;28;20051;-88
2023/04/20 08:54:29;;;;;;;14.68;6.50;;;;;;;10.94;100.00;101050.69;6114134;28;20036;-87
2023/04/20 08:57:33;;;;;;;10.07;6.10;;;;;;;10.96;100.00;101047.06;6118433;28;20113;-87
2023/04/20 09:00:45;;;;;;;9.25;5.82;;;;;;;10.92;100.00;101044.78;6132336;28;20049;-87
2023/04/20 09:03:47;;;;;;;9.55;5.88;;;;;;;11.09;100.00;101052.16;6140645;28;20058;-88
2023/04/20 09:06:56;;;;;;;6.90;5.30;;;;;;;11.36;100.00;101051.09;6109698;28;20051;-87
2023/04/20 09:09:59;;;;;;;10.45;5.90;;;;;;;11.48;100.00;101045.00;6129071;28;20072;-88
2023/04/20 09:13:02;;;;;;;11.40;5.68;;;;;;;11.81;100.00;101048.59;6105854;28;20518;-87
2023/04/20 09:16:11;;;;;;;7.93;6.28;;;;;;;12.11;100.00;101047.22;6131368;28;20391;-88
2023/04/20 09:19:13;;;;;;;8.00;6.05;;;;;;;12.26;100.00;101046.84;6104146;28;20159;-87
2023/04/20 09:22:15;;;;;;;8.85;5.47;;;;;;;12.20;100.00;101047.34;6134417;28;20042;-87
2023/04/20 09:25:18;;;;;;;7.05;5.32;;;;;;;12.29;100.00;101050.97;6118748;28;20048;-87
2023/04/20 09:28:21;;;;;;;7.43;5.63;;;;;;;12.53;100.00;101050.03;6125483;28;20055;-87
2023/04/20 09:31:23;;;;;;;7.88;5.13;;;;;;;12.77;100.00;101057.63;6125621;28;20044;-87
2023/04/20 09:34:25;;;;;;;5.70;5.03;;;;;;;12.55;100.00;101053.34;6123265;28;20046;-88
2023/04/20 09:37:27;;;;;;;9.95;5.30;;;;;;;12.68;100.00;101057.41;6132337;28;20040;-87
2023/04/20 09:40:29;;;;;;;7.30;5.43;;;;;;;13.01;100.00;101060.03;6108322;28;20084;-87
2023/04/20 09:43:33;;;;;;;5.72;4.60;;;;;;;12.99;100.00;101064.53;6128752;28;20604;-88
2023/04/20 09:46:39;;;;;;;5.60;4.57;;;;;;;12.91;100.00;101065.16;6123161;28;20039;-89
2023/04/20 09:49:43;;;;;;;7.53;5.47;;;;;;;12.87;100.00;101058.56;6088684;28;20047;-88
2023/04/20 09:52:48;;;;;;;8.57;5.70;;;;;;;12.89;100.00;101054.91;6122292;28;20047;-87
2023/04/20 09:55:50;;;;;;;8.10;5.93;;;;;;;13.13;100.00;101062.47;6133572;28;20043;-88
2023/04/20 09:58:53;;;;;;;6.28;5.25;;;;;;;13.11;100.00;101069.56;6116324;28;20080;-88
2023/04/20 10:01:55;;;;;;;6.32;5.50;;;;;;;12.97;100.00;101059.47;6118155;28;20379;-88
2023/04/20 10:04:58;;;;;;;6.97;5.65;;;;;;;13.08;100.00;101059.41;6124722;28;20386;-88
2023/04/20 10:08:02;;;;;;;6.55;5.32;;;;;;;13.39;100.00;101059.56;6137228;28;20094;-88
2023/04/20 10:11:04;;;;;;;7.25;5.57;;;;;;;13.56;100.00;101064.19;6108502;28;20098;-88
2023/04/20 10:14:23;;;;;;;6.78;4.75;;;;;;;13.73;100.00;101064.56;6118995;28;20039;-88
2023/04/20 10:17:32;;;;;;;6.00;4.78;;;;;;;13.66;100.00;101053.00;6130514;28;20047;-88
2023/04/20 10:20:34;;;;;;;5.88;4.60;;;;;;;13.47;100.00;101072.75;6114848;28;20083;-88
2023/04/20 10:23:47;;;;;;;5.45;4.55;;;;;;;13.49;100.00;101068.25;6116843;28;20047;-88
2023/04/20 10:26:49;;;;;;;5.32;4.68;;;;;;;13.52;100.00;101061.97;6124029;28;20453;-88
2023/04/20 10:29:51;;;;;;;6.93;4.47;;;;;;;13.62;100.00;101062.84;6103199;28;20052;-88
2023/04/20 10:33:10;;;;;;;7.93;4.60;;;;;;;13.54;100.00;101060.88;6118776;28;20040;-88
2023/04/20 10:36:33;;;;;;;5.55;4.05;;;;;;;13.37;100.00;101064.06;6102799;28;20046;-89
2023/04/20 10:39:42;;;;;;;6.65;4.20;;;;;;;13.43;100.00;101060.94;6101097;28;20621;-89
2023/04/20 10:42:44;;;;;;;6.20;4.57;;;;;;;13.44;100.00;101060.00;6099519;28;20175;-89
2023/04/20 10:45:47;;;;;;;5.97;5.00;;;;;;;13.51;100.00;101058.53;6119587;28;20078;-88
2023/04/20 10:49:05;;;;;;;6.15;5.35;;;;;;;13.60;100.00;101051.75;6133431;28;20047;-88
2023/04/20 10:52:08;;;;;;;5.85;4.55;;;;;;;13.65;100.00;101051.38;6127951;28;20043;-88
2023/04/20 10:55:25;;;;;;;6.70;5.43;;;;;;;13.44;100.00;101051.34;6123737;28;20122;-88
2023/04/20 10:58:27;;;;;;;7.47;5.20;;;;;;;13.44;100.00;101049.59;6135009;28;20545;-88
2023/04/20 11:01:31;;;;;;;6.32;5.35;;;;;;;13.51;100.00;101047.31;6117784;28;20050;-88
2023/04/20 11:04:35;;;;;;;7.10;5.47;;;;;;;13.72;100.00;101057.72;6114551;28;20044;-88
2023/04/20 11:07:46;;;;;;;5.30;4.78;;;;;;;13.88;100.00;101052.03;6129471;28;20039;-89
2023/04/20 11:10:48;;;;;;;6.55;5.25;;;;;;;14.11;100.00;101060.47;6132276;28;20044;-89
2023/04/20 11:13:50;;;;;;;5.65;4.40;;;;;;;14.16;100.00;101058.31;6128087;28;20499;-88
2023/04/20 11:16:52;;;;;;;4.90;4.40;;;;;;;13.86;100.00;101054.75;6105580;28;20553;-88
2023/04/20 11:20:17;;;;;;;6.18;5.22;;;;;;;13.91;100.00;101059.56;6130484;28;20039;-88
2023/04/20 11:23:20;;;;;;;7.38;5.03;;;;;;;14.16;100.00;101048.75;6122615;28;20074;-88
2023/04/20 11:26:34;;;;;;;7.10;5.10;;;;;;;14.61;100.00;101044.91;6120960;28;20090;-88
2023/04/20 11:29:38;;;;;;;4.90;4.30;;;;;;;15.00;99.24;101042.31;6119893;28;20048;-88
2023/04/20 11:32:40;;;;;;;4.88;4.38;;;;;;;14.79;100.00;101039.84;6105601;28;20035;-88
2023/04/20 11:35:43;;;;;;;5.13;4.50;;;;;;;14.93;100.00;101033.41;6141601;28;20477;-88
2023/04/20 11:38:45;;;;;;;5.78;4.53;;;;;;;15.00;100.00;101037.09;6118852;28;20550;-88
2023/04/20 11:41:46;;;;;;;7.13;5.32;;;;;;;14.83;100.00;101033.41;6119602;28;20082;-88
2023/04/20 11:44:48;;;;;;;6.35;4.72;;;;;;;14.99;100.00;101032.88;6127032;28;20378;-88
2023/04/20 11:47:51;;;;;;;4.75;4.35;;;;;;;15.11;97.01;101026.56;6128552;28;20048;-88
2023/04/20 11:50:53;;;;;;;5.10;4.57;;;;;;;15.08;99.30;101016.41;6108138;28;20051;-88
2023/04/20 11:53:55;;;;;;;6.35;5.18;;;;;;;14.65;100.00;101020.22;6123427;28;20036;-88
2023/04/20 11:56:58;;;;;;;6.43;5.18;;;;;;;14.52;100.00;101012.63;6132227;28;20046;-88
2023/04/20 12:00:00;;;;;;;7.43;5.10;;;;;;;14.80;100.00;101005.81;6125077;28;20035;-88
2023/04/20 12:03:03;;;;;;;6.20;4.93;;;;;;;14.94;100.00;101004.59;6123019;28;20038;-89
2023/04/20 12:06:05;;;;;;;6.05;5.40;;;;;;;14.80;100.00;101005.00;6128067;28;20149;-88
2023/04/20 12:09:07;;;;;;;5.78;4.90;;;;;;;14.70;100.00;100997.19;6106527;28;20458;-89
2023/04/20 12:12:09;;;;;;;5.68;5.13;;;;;;;14.65;100.00;101010.63;6139554;28;20436;-89
2023/04/20 12:15:11;;;;;;;6.28;5.05;;;;;;;14.65;100.00;101002.78;6131255;28;20596;-88
2023/04/20 12:18:13;;;;;;;6.72;5.22;;;;;;;14.82;100.00;101000.47;6123723;28;20127;-89
2023/04/20 12:21:16;;;;;;;6.93;5.32;;;;;;;15.00;100.00;101003.22;6117953;28;20055;-89
2023/04/20 12:24:18;;;;;;;6.65;5.55;;;;;;;14.70;94.31;100997.19;6114087;28;20055;-88
2023/04/20 12:27:20;;;;;;;6.75;5.53;;;;;;;14.84;100.00;100993.34;6120375;28;20079;-89
2023/04/20 12:30:22;;;;;;;7.47;6.07;;;;;;;15.01;100.00;100991.84;6117804;28;20231;-89
2023/04/20 12:33:24;;;;;;;6.80;5.40;;;;;;;15.34;97.43;100981.91;6121674;28;20083;-89
2023/04/20 12:36:26;;;;;;;7.05;4.60;;;;;;;15.75;96.49;100978.09;6131919;28;20042;-88
2023/04/20 12:39:28;;;;;;;6.75;5.28;;;;;;;16.27;100.00;100973.16;6130087;28;20066;-89
2023/04/20 12:42:30;;;;;;;5.55;4.88;;;;;;;16.64;84.46;100969.56;6133578;28;20039;-89
2023/04/20 12:45:32;;;;;;;7.25;4.68;;;;;;;17.11;81.13;100969.34;6123317;28;20453;-89
2023/04/20 12:48:35;;;;;;;5.30;4.80;;;;;;;17.15;74.95;100969.88;6113479;28;20052;-89
2023/04/20 12:51:37;;;;;;;5.93;5.00;;;;;;;16.79;76.03;100969.91;6124244;28;20047;-89
2023/04/20 12:54:40;;;;;;;5.75;4.90;;;;;;;16.76;83.71;100957.09;6126600;28;20053;-89
2023/04/20 12:57:45;;;;;;;5.00;4.50;;;;;;;16.98;77.24;100967.13;6134656;28;20043;-89
2023/04/20 13:00:47;;;;;;;5.53;4.38;;;;;;;16.90;75.54;100959.22;6123771;28;20506;-90
2023/04/20 13:03:50;;;;;;;4.93;4.47;;;;;;;16.96;75.99;100952.56;6134711;28;20043;-89
2023/04/20 13:06:53;;;;;;;4.93;4.32;;;;;;;17.16;76.19;100963.63;6128496;28;20119;-89
2023/04/20 13:09:54;;;;;;;5.00;4.28;;;;;;;17.35;71.24;100968.69;6125792;28;20390;-89
2023/04/20 13:12:58;;;;;;;4.80;4.30;;;;;;;17.15;69.59;100962.81;6118428;28;20071;-88
2023/04/20 13:16:00;;;;;;;4.97;4.47;;;;;;;17.16;71.21;100964.47;6139980;28;20421;-89
2023/04/20 13:19:02;;;;;;;6.05;5.05;;;;;;;17.43;77.12;100957.44;6122633;28;20039;-89
2023/04/20 13:22:04;;;;;;;5.50;4.95;;;;;;;17.56;72.45;100959.63;6123029;28;20107;-89
2023/04/20 13:25:07;;;;;;;6.18;4.70;;;;;;;17.31;71.49;100961.28;6110199;28;20039;-89
2023/04/20 13:28:09;;;;;;;4.90;3.85;;;;;;;16.75;70.75;100961.50;6091337;28;20047;-89
2023/04/20 13:31:13;;;;;;;5.97;4.28;;;;;;;16.47;73.07;100966.00;6115457;28;20410;-89
2023/04/20 13:34:15;;;;;;;4.22;3.72;;;;;;;16.32;69.03;100964.84;6124250;28;20470;-89
2023/04/20 13:37:17;;;;;;;6.32;4.18;;;;;;;16.22;73.72;100970.13;6110038;28;20423;-89
2023/04/20 13:40:20;;;;;;;4.78;4.25;;;;;;;16.41;73.52;100965.78;6104297;28;20051;-89
2023/04/20 13:43:22;;;;;;;5.85;4.25;;;;;;;16.35;72.65;100964.59;6112973;28;20052;-89
2023/04/20 13:46:24;;;;;;;3.97;3.58;;;;;;;16.14;68.17;100962.22;6100197;28;20105;-89
2023/04/20 13:49:26;;;;;;;5.40;3.88;;;;;;;15.87;73.91;100966.47;6098941;28;20513;-89
2023/04/20 13:52:28;;;;;;;5.38;3.88;;;;;;;15.55;76.28;100958.22;6117903;28;20052;-89
2023/04/20 13:55:30;;;;;;;5.07;4.57;;;;;;;15.19;75.34;100952.84;6133400;28;20054;-89
2023/04/20 13:58:32;;;;;;;4.97;4.45;;;;;;;14.73;79.00;100942.22;6138450;28;20058;-89
2023/04/20 14:01:35;;;;;;;6.10;4.53;;;;;;;14.40;88.36;100935.56;6106350;28;20114;-89
2023/04/20 14:04:37;;;;;;;5.65;4.63;;;;;;;14.24;100.00;100933.50;6125027;28;20050;-90
2023/04/20 14:07:39;;;;;;;7.28;5.47;;;;;;;14.17;96.82;100927.19;6106340;28;20054;-94
2023/04/20 14:10:41;;;;;;;5.25;4.70;;;;;;;14.07;99.38;100915.94;6104482;28;20194;-92